Time;durP1;ratioP1;P1;durP2;ratioP2;P2;SDS_P1;SDS_P2;PMS_P1;PMS_P2;Temp;Humidity;BMP_temperature;BMP_pressure;BME280_temperature;BME280_humidity;BME280_pressure;Samples;Min_cycle;Max_cycle;Signal;HPM_P1;HPM_P2
2022/01/26 00:07:09;;;;;;;;;;;3.20;99.90;;;;;;5073600;28;20333;-59
2022/01/26 00:09:35;;;;;;;;;;;;;;;;;;5073497;28;19975;-59
2022/01/26 00:12:00;;;;;;;;;;;3.10;99.90;;;;;;5055821;28;20364;-59
2022/01/26 00:14:26;;;;;;;;;;;3.40;99.90;;;;;;5098151;28;19916;-59
2022/01/26 00:16:52;;;;;;;;;;;3.10;99.90;;;;;;5093624;28;20302;-59
2022/01/26 00:19:24;;;;;;;;;;;3.20;99.90;;;;;;5077959;28;20402;-59
2022/01/26 00:21:55;;;;;;;;;;;3.30;99.90;;;;;;5076668;28;19923;-59
2022/01/26 00:29:24;;;;;;;;;;;3.30;99.90;;;;;;5075863;28;19916;-59
2022/01/26 00:33:06;;;;;;;;;;;3.20;99.90;;;;;;5073804;28;19920;-59
2022/01/26 00:40:24;;;;;;;;;;;3.30;99.90;;;;;;5082760;28;19977;-59
2022/01/26 00:42:53;;;;;;;;;;;3.10;99.90;;;;;;5078741;28;19951;-59
2022/01/26 00:45:23;;;;;;;;;;;3.20;99.90;;;;;;5085961;28;20257;-59
2022/01/26 00:47:50;;;;;;;;;;;3.40;99.90;;;;;;5060403;28;19969;-59
2022/01/26 00:50:16;;;;;;;;;;;3.10;99.90;;;;;;5073032;28;19965;-59
2022/01/26 00:52:45;;;;;;;;;;;2.90;99.90;;;;;;5081499;28;19919;-59
2022/01/26 00:55:15;;;;;;;;;;;3.10;99.90;;;;;;5077278;28;19923;-59
2022/01/26 00:57:41;;;;;;;;;;;3.20;99.90;;;;;;5062166;28;20344;-58
2022/01/26 01:00:09;;;;;;;;;;;3.30;99.90;;;;;;5097843;28;20006;-59
2022/01/26 01:02:34;;;;;;;;;;;3.10;99.90;;;;;;5073661;28;19919;-60
2022/01/26 01:05:05;;;;;;;;;;;2.90;99.90;;;;;;5077973;28;19923;-59
2022/01/26 01:07:35;;;;;;;;;;;3.00;99.90;;;;;;5096794;28;19916;-60
2022/01/26 01:10:00;;;;;;;;;;;3.10;99.90;;;;;;5081786;28;19916;-59
2022/01/26 01:12:26;;;;;;;;;;;3.10;99.90;;;;;;5087238;28;19970;-59
2022/01/26 01:14:51;;;;;;;;;;;3.10;99.90;;;;;;5103712;28;19977;-59
2022/01/26 01:17:24;;;;;;;;;;;2.90;99.90;;;;;;5080284;28;19995;-59
2022/01/26 01:28:17;;;;;;;;;;;3.10;99.90;;;;;;5093642;28;20373;-59
2022/01/26 01:30:47;;;;;;;;;;;3.00;99.90;;;;;;5091097;28;19916;-59
2022/01/26 01:33:18;;;;;;;;;;;3.40;99.90;;;;;;5075649;28;19924;-59
2022/01/26 01:35:44;;;;;;;;;;;3.20;99.90;;;;;;5103308;28;19916;-59
2022/01/26 01:38:13;;;;;;;;;;;;;;;;;;5096720;28;19916;-59
2022/01/26 01:40:40;;;;;;;;;;;3.30;99.90;;;;;;5070636;28;19916;-59
2022/01/26 01:43:06;;;;;;;;;;;3.30;99.90;;;;;;5090964;28;20264;-59
2022/01/26 01:45:32;;;;;;;;;;;;;;;;;;5087058;28;19923;-61
2022/01/26 01:47:58;;;;;;;;;;;3.10;99.90;;;;;;5057874;28;19922;-59
2022/01/26 01:50:23;;;;;;;;;;;3.20;99.90;;;;;;5075408;28;19956;-59
2022/01/26 01:52:49;;;;;;;;;;;3.10;99.90;;;;;;5071342;28;19967;-59
2022/01/26 01:55:15;;;;;;;;;;;3.30;99.90;;;;;;5060614;28;19916;-59
2022/01/26 01:57:41;;;;;;;;;;;3.20;99.90;;;;;;5087323;28;19939;-58
2022/01/26 02:00:08;;;;;;;;;;;3.10;99.90;;;;;;5057939;28;20353;-59
2022/01/26 02:02:33;;;;;;;;;;;3.30;99.90;;;;;;5064840;28;19916;-59
2022/01/26 02:04:59;;;;;;;;;;;3.10;99.90;;;;;;5091089;28;19916;-59
2022/01/26 02:07:24;;;;;;;;;;;3.30;99.90;;;;;;5097848;28;19919;-60
2022/01/26 02:09:50;;;;;;;;;;;3.30;99.90;;;;;;5085743;28;20364;-58
2022/01/26 02:12:18;;;;;;;;;;;3.10;99.90;;;;;;5100354;28;19974;-59
2022/01/26 02:14:46;;;;;;;;;;;3.30;99.90;;;;;;5060263;28;19916;-59
2022/01/26 02:20:02;;;;;;;;;;;3.20;99.90;;;;;;5089513;28;19916;-59
2022/01/26 02:56:06;;;;;;;;;;;;;;;;;;4988332;28;19921;-59
2022/01/26 03:03:50;;;;;;;;;;;3.00;99.90;;;;;;5077464;28;20330;-59
2022/01/26 03:06:21;;;;;;;;;;;3.00;99.90;;;;;;5073976;28;19923;-59
2022/01/26 03:08:54;;;;;;;;;;;3.00;99.90;;;;;;5069286;28;19923;-59
2022/01/26 03:11:21;;;;;;;;;;;3.10;99.90;;;;;;5058523;28;20003;-59
2022/01/26 03:13:53;;;;;;;;;;;3.00;99.90;;;;;;5054159;28;19923;-59
2022/01/26 03:16:34;;;;;;;;;;;3.00;99.90;;;;;;5073474;28;20226;-59
2022/01/26 03:35:29;;;;;;;;;;;3.10;99.90;;;;;;5075377;28;19916;-59
2022/01/26 03:37:56;;;;;;;;;;;;;;;;;;5094158;28;20275;-59
2022/01/26 03:40:30;;;;;;;;;;;3.30;99.90;;;;;;5071757;28;19998;-59
2022/01/26 03:42:58;;;;;;;;;;;3.10;99.90;;;;;;5073769;28;19921;-59
2022/01/26 03:45:25;;;;;;;;;;;;;;;;;;5067492;28;19916;-60
2022/01/26 03:47:51;;;;;;;;;;;;;;;;;;5093853;28;19923;-59
2022/01/26 03:50:17;;;;;;;;;;;;;;;;;;5089042;28;19916;-60
2022/01/26 03:52:42;;;;;;;;;;;2.90;99.90;;;;;;5075010;28;19938;-59
2022/01/26 03:55:08;;;;;;;;;;;;;;;;;;5060498;28;20253;-59
2022/01/26 03:57:34;;;;;;;;;;;3.10;99.90;;;;;;5078762;28;19916;-59
2022/01/26 04:00:00;;;;;;;;;;;;;;;;;;5100989;28;19916;-59
2022/01/26 04:02:26;;;;;;;;;;;;;;;;;;5097389;28;19922;-59
2022/01/26 04:04:57;;;;;;;;;;;2.90;99.90;;;;;;5100991;28;20360;-59
2022/01/26 04:07:23;;;;;;;;;;;3.10;99.90;;;;;;5114236;28;19919;-59
2022/01/26 04:09:48;;;;;;;;;;;;;;;;;;5096055;28;20420;-64
2022/01/26 04:12:14;;;;;;;;;;;3.30;99.90;;;;;;5107802;28;19970;-58
2022/01/26 04:14:42;;;;;;;;;;;2.80;99.90;;;;;;5110243;28;20006;-58
2022/01/26 04:17:08;;;;;;;;;;;2.90;99.90;;;;;;5042906;28;19916;-59
2022/01/26 04:19:37;;;;;;;;;;;;;;;;;;5073042;28;19915;-59
2022/01/26 04:22:16;;;;;;;;;;;;;;;;;;5078713;28;19920;-58
2022/01/26 04:24:48;;;;;;;;;;;;;;;;;;5097839;28;19923;-59
2022/01/26 04:29:39;;;;;;;;;;;3.20;99.90;;;;;;5091706;28;20357;-59
2022/01/26 04:32:05;;;;;;;;;;;;;;;;;;5088601;28;19920;-59
2022/01/26 04:34:33;;;;;;;;;;;3.00;99.90;;;;;;5090667;28;19916;-59
2022/01/26 04:37:08;;;;;;;;;;;;;;;;;;5094624;28;19977;-59
2022/01/26 04:39:40;;;;;;;;;;;3.00;99.90;;;;;;5076144;28;19916;-59
2022/01/26 04:42:12;;;;;;;;;;;3.20;99.90;;;;;;5093476;28;19923;-59
2022/01/26 04:44:57;;;;;;;;;;;2.90;99.90;;;;;;5087323;28;20272;-60
2022/01/26 04:47:23;;;;;;;;;;;3.10;99.90;;;;;;5076600;28;19923;-59
2022/01/26 04:49:48;;;;;;;;;;;3.20;99.90;;;;;;5081661;28;19915;-59
2022/01/26 04:52:14;;;;;;;;;;;3.10;99.90;;;;;;5079395;28;19943;-59
2022/01/26 04:54:39;;;;;;;;;;;2.80;99.90;;;;;;5058605;28;19916;-59
2022/01/26 04:57:05;;;;;;;;;;;3.10;99.90;;;;;;5095795;28;19961;-58
2022/01/26 04:59:31;;;;;;;;;;;3.00;99.90;;;;;;5080763;28;20363;-59
2022/01/26 05:01:56;;;;;;;;;;;3.10;99.90;;;;;;5093996;28;19916;-58
2022/01/26 05:04:22;;;;;;;;;;;2.50;99.90;;;;;;5075880;28;19951;-58
2022/01/26 05:06:47;;;;;;;;;;;2.90;99.90;;;;;;5096840;28;20015;-58
2022/01/26 05:09:12;;;;;;;;;;;2.70;99.90;;;;;;5075467;28;19916;-59
2022/01/26 05:11:41;;;;;;;;;;;2.90;99.90;;;;;;5076316;28;19916;-58
2022/01/26 05:14:07;;;;;;;;;;;2.90;99.90;;;;;;5060131;28;20358;-59
2022/01/26 05:16:33;;;;;;;;;;;2.90;99.90;;;;;;5057497;28;19916;-58
2022/01/26 05:18:59;;;;;;;;;;;;;;;;;;5076050;28;19916;-58
2022/01/26 05:21:29;;;;;;;;;;;3.00;99.90;;;;;;5101924;28;19927;-59
2022/01/26 05:23:55;;;;;;;;;;;;;;;;;;5078392;28;19989;-58
2022/01/26 05:26:20;;;;;;;;;;;3.10;99.90;;;;;;5077260;28;20345;-58
2022/01/26 05:28:46;;;;;;;;;;;;;;;;;;5077300;28;19916;-62
2022/01/26 05:31:12;;;;;;;;;;;3.00;99.90;;;;;;5094219;28;19930;-59
2022/01/26 05:33:37;;;;;;;;;;;2.70;99.90;;;;;;5095951;28;19921;-58
2022/01/26 05:36:03;;;;;;;;;;;3.10;99.90;;;;;;5092378;28;19968;-58
2022/01/26 05:38:29;;;;;;;;;;;;;;;;;;5091269;28;19916;-59
2022/01/26 05:40:57;;;;;;;;;;;;;;;;;;5094573;28;19919;-59
2022/01/26 05:43:23;;;;;;;;;;;;;;;;;;5092480;28;19916;-59
2022/01/26 05:45:53;;;;;;;;;;;3.10;99.90;;;;;;5086972;28;20413;-59
2022/01/26 05:48:18;;;;;;;;;;;2.90;99.90;;;;;;5077425;28;20409;-59
2022/01/26 05:50:51;;;;;;;;;;;2.70;99.90;;;;;;5091707;28;20042;-59
2022/01/26 05:53:20;;;;;;;;;;;2.90;99.90;;;;;;5081548;28;19950;-58
2022/01/26 05:55:47;;;;;;;;;;;3.00;99.90;;;;;;5077228;28;19916;-58
2022/01/26 05:58:13;;;;;;;;;;;3.00;99.90;;;;;;5095531;28;19916;-58
2022/01/26 06:00:39;;;;;;;;;;;3.20;99.90;;;;;;5100094;28;20255;-59
2022/01/26 06:03:04;;;;;;;;;;;2.60;99.90;;;;;;5114086;28;19919;-59
2022/01/26 06:05:30;;;;;;;;;;;2.80;99.90;;;;;;5106101;28;19922;-59
2022/01/26 06:07:55;;;;;;;;;;;3.20;99.90;;;;;;5097736;28;19977;-58
2022/01/26 06:10:21;;;;;;;;;;;2.90;99.90;;;;;;5085806;28;19928;-58
2022/01/26 06:12:46;;;;;;;;;;;2.90;99.90;;;;;;5097250;28;20368;-59
2022/01/26 06:15:12;;;;;;;;;;;3.00;99.90;;;;;;5073158;28;19916;-58
2022/01/26 06:17:37;;;;;;;;;;;3.20;99.90;;;;;;5056791;28;19916;-58
2022/01/26 06:20:03;;;;;;;;;;;;;;;;;;5074777;28;19916;-59
2022/01/26 06:22:29;;;;;;;;;;;3.20;99.90;;;;;;5066770;28;20020;-58
2022/01/26 06:24:57;;;;;;;;;;;;;;;;;;5096137;28;19920;-59
2022/01/26 06:27:22;;;;;;;;;;;3.00;99.90;;;;;;5090995;28;19923;-59
2022/01/26 06:29:48;;;;;;;;;;;3.20;99.90;;;;;;5092701;28;19978;-58
2022/01/26 06:32:16;;;;;;;;;;;3.10;99.90;;;;;;5094578;28;19916;-58
2022/01/26 06:34:42;;;;;;;;;;;3.40;99.90;;;;;;5076039;28;19916;-59
2022/01/26 06:37:08;;;;;;;;;;;;;;;;;;5093150;28;19923;-58
2022/01/26 06:39:34;;;;;;;;;;;3.10;99.90;;;;;;5063967;28;20014;-59
2022/01/26 06:41:59;;;;;;;;;;;3.40;99.90;;;;;;5058748;28;19916;-58
2022/01/26 06:44:33;;;;;;;;;;;;;;;;;;5074476;28;19916;-59
2022/01/26 06:49:28;;;;;;;;;;;2.90;99.90;;;;;;5056896;28;20008;-57
2022/01/26 06:51:54;;;;;;;;;;;3.30;99.90;;;;;;5076989;28;20360;-57
2022/01/26 06:54:20;;;;;;;;;;;;;;;;;;5075644;28;19916;-59
2022/01/26 06:56:45;;;;;;;;;;;3.10;99.90;;;;;;5093436;28;19969;-57
2022/01/26 06:59:12;;;;;;;;;;;3.10;99.90;;;;;;5075019;28;19916;-57
2022/01/26 07:01:38;;;;;;;;;;;;;;;;;;5077530;28;19916;-57
2022/01/26 07:04:03;;;;;;;;;;;3.00;99.90;;;;;;5094102;28;19923;-57
2022/01/26 07:06:29;;;;;;;;;;;3.30;99.90;;;;;;5094454;28;20367;-57
2022/01/26 07:08:55;;;;;;;;;;;;;;;;;;5092758;28;20007;-57
2022/01/26 07:11:21;;;;;;;;;;;;;;;;;;5096969;28;19916;-57
2022/01/26 07:13:46;;;;;;;;;;;3.20;99.90;;;;;;5094211;28;19916;-57
2022/01/26 07:21:40;;;;;;;;;;;3.10;99.90;;;;;;5085706;28;19969;-58
2022/01/26 07:24:05;;;;;;;;;;;3.10;99.90;;;;;;5075158;28;20378;-59
2022/01/26 07:26:31;;;;;;;;;;;3.10;99.90;;;;;;5096245;28;19916;-58
2022/01/26 07:28:57;;;;;;;;;;;3.40;99.90;;;;;;5097612;28;19916;-58
2022/01/26 07:31:23;;;;;;;;;;;3.40;99.90;;;;;;5064073;28;19915;-58
2022/01/26 07:33:54;;;;;;;;;;;3.20;99.90;;;;;;5097863;28;20341;-57
2022/01/26 07:36:20;;;;;;;;;;;3.00;99.90;;;;;;5085871;28;19999;-58
2022/01/26 07:38:49;;;;;;;;;;;3.10;99.90;;;;;;5100957;28;20006;-58
2022/01/26 07:41:15;;;;;;;;;;;;;;;;;;5083207;28;19919;-58
2022/01/26 07:43:41;;;;;;;;;;;3.30;99.90;;;;;;5100559;28;19923;-58
2022/01/26 07:46:08;;;;;;;;;;;3.00;99.90;;;;;;5114847;28;19977;-58
2022/01/26 07:48:33;;;;;;;;;;;3.40;99.90;;;;;;5118451;28;19919;-57
2022/01/26 07:50:59;;;;;;;;;;;3.20;99.90;;;;;;5118032;28;20259;-58
2022/01/26 07:53:25;;;;;;;;;;;3.40;99.90;;;;;;5118378;28;19919;-58
2022/01/26 07:55:51;;;;;;;;;;;;;;;;;;5115150;28;19916;-59
2022/01/26 07:58:18;;;;;;;;;;;3.20;99.90;;;;;;5077528;28;19917;-58
2022/01/26 08:00:44;;;;;;;;;;;3.50;99.90;;;;;;5043594;28;19923;-58
2022/01/26 08:03:09;;;;;;;;;;;3.20;99.90;;;;;;5059735;28;19916;-58
2022/01/26 08:05:35;;;;;;;;;;;3.40;99.90;;;;;;5082558;28;20003;-58
2022/01/26 08:08:01;;;;;;;;;;;3.70;99.90;;;;;;5096703;28;19916;-58
2022/01/26 08:10:26;;;;;;;;;;;3.50;99.90;;;;;;5100103;28;20343;-58
2022/01/26 08:12:52;;;;;;;;;;;3.40;99.90;;;;;;5082297;28;19916;-58
2022/01/26 08:15:18;;;;;;;;;;;3.70;99.90;;;;;;5097516;28;19963;-58
2022/01/26 08:17:44;;;;;;;;;;;3.60;99.90;;;;;;5061928;28;19915;-58
2022/01/26 08:20:10;;;;;;;;;;;4.00;99.90;;;;;;5092142;28;20288;-58
2022/01/26 08:22:36;;;;;;;;;;;3.70;99.90;;;;;;5077134;28;19917;-57
2022/01/26 08:25:02;;;;;;;;;;;3.90;99.90;;;;;;5045482;28;20349;-58
2022/01/26 08:27:33;;;;;;;;;;;;;;;;;;5078854;28;19937;-57
2022/01/26 08:30:03;;;;;;;;;;;3.90;99.90;;;;;;5064761;28;19916;-57
2022/01/26 08:32:29;;;;;;;;;;;;;;;;;;5062384;28;19916;-57
2022/01/26 08:34:55;;;;;;;;;;;4.20;99.90;;;;;;5079071;28;19990;-57
2022/01/26 08:37:20;;;;;;;;;;;3.70;99.90;;;;;;5095948;28;20290;-57
2022/01/26 08:39:46;;;;;;;;;;;4.00;99.90;;;;;;5096422;28;19968;-57
2022/01/26 08:42:12;;;;;;;;;;;4.10;99.90;;;;;;5077923;28;19922;-58
2022/01/26 08:44:38;;;;;;;;;;;;;;;;;;5078135;28;19915;-61
2022/01/26 08:47:04;;;;;;;;;;;4.00;99.90;;;;;;5095861;28;19916;-57
2022/01/26 08:49:31;;;;;;;;;;;3.60;99.90;;;;;;5077129;28;20435;-58
2022/01/26 08:51:56;;;;;;;;;;;;;;;;;;5059929;28;19916;-57
2022/01/26 08:54:22;;;;;;;;;;;4.10;99.90;;;;;;5095896;28;19973;-58
2022/01/26 08:56:48;;;;;;;;;;;;;;;;;;5077014;28;19916;-58
2022/01/26 08:59:14;;;;;;;;;;;;;;;;;;5076945;28;19916;-57
2022/01/26 09:01:40;;;;;;;;;;;4.10;99.90;;;;;;5094994;28;19920;-58
2022/01/26 09:04:05;;;;;;;;;;;;;;;;;;5094455;28;19920;-59
2022/01/26 09:06:33;;;;;;;;;;;4.50;99.90;;;;;;5077326;28;19969;-58
2022/01/26 09:09:05;;;;;;;;;;;4.50;99.90;;;;;;5076461;28;20372;-58
2022/01/26 09:11:31;;;;;;;;;;;3.90;99.90;;;;;;5076838;28;19923;-58
2022/01/26 09:13:58;;;;;;;;;;;3.90;99.90;;;;;;5060193;28;20270;-58
2022/01/26 09:16:25;;;;;;;;;;;;;;;;;;5060198;28;19923;-59
2022/01/26 09:18:57;;;;;;;;;;;4.30;99.90;;;;;;5094462;28;19920;-58
2022/01/26 09:21:24;;;;;;;;;;;;;;;;;;5076742;28;19915;-58
2022/01/26 09:23:50;;;;;;;;;;;;;;;;;;5076906;28;19984;-58
2022/01/26 09:26:17;;;;;;;;;;;4.30;99.90;;;;;;5094528;28;20415;-58
2022/01/26 09:28:42;;;;;;;;;;;4.10;99.90;;;;;;5094653;28;19916;-58
2022/01/26 09:31:08;;;;;;;;;;;4.30;99.90;;;;;;5094431;28;20264;-58
2022/01/26 09:33:34;;;;;;;;;;;;;;;;;;5066527;28;19930;-58
2022/01/26 09:36:00;;;;;;;;;;;;;;;;;;5093650;28;19924;-59
2022/01/26 09:38:26;;;;;;;;;;;;;;;;;;5076158;28;20249;-59
2022/01/26 09:40:51;;;;;;;;;;;4.20;99.90;;;;;;5093970;28;19963;-59
2022/01/26 09:43:17;;;;;;;;;;;;;;;;;;5075676;28;20010;-58
2022/01/26 09:45:43;;;;;;;;;;;4.00;99.90;;;;;;5094187;28;19961;-59
2022/01/26 09:48:10;;;;;;;;;;;4.40;99.90;;;;;;5076677;28;19967;-58
2022/01/26 09:50:36;;;;;;;;;;;4.20;99.90;;;;;;5075117;28;20010;-58
2022/01/26 09:53:02;;;;;;;;;;;4.10;99.90;;;;;;5059621;28;20010;-59
2022/01/26 09:55:27;;;;;;;;;;;4.40;99.90;;;;;;5075714;28;20370;-58
2022/01/26 09:57:58;;;;;;;;;;;4.10;99.90;;;;;;5075770;28;19923;-58
2022/01/26 10:00:24;;;;;;;;;;;4.30;99.90;;;;;;5074170;28;19924;-58
2022/01/26 10:02:50;;;;;;;;;;;;;;;;;;5092413;28;19919;-59
2022/01/26 10:05:17;;;;;;;;;;;;;;;;;;5093976;28;19961;-58
2022/01/26 10:07:59;;;;;;;;;;;4.20;99.90;;;;;;5059015;28;19916;-59
2022/01/26 10:15:38;;;;;;;;;;;;;;;;;;5093994;28;19919;-59
2022/01/26 10:18:08;;;;;;;;;;;4.80;99.90;;;;;;5075808;28;20007;-58
2022/01/26 10:20:42;;;;;;;;;;;4.60;99.90;;;;;;5093495;28;19927;-57
2022/01/26 10:23:08;;;;;;;;;;;;;;;;;;5059066;28;20279;-58
2022/01/26 10:25:34;;;;;;;;;;;4.40;99.90;;;;;;5075480;28;19916;-58
2022/01/26 10:28:00;;;;;;;;;;;;;;;;;;5093553;28;20014;-59
2022/01/26 10:30:26;;;;;;;;;;;4.30;99.90;;;;;;5075594;28;19962;-58
2022/01/26 10:32:51;;;;;;;;;;;4.50;99.90;;;;;;5074660;28;19969;-58
2022/01/26 10:35:17;;;;;;;;;;;4.40;99.90;;;;;;5075248;28;19957;-57
2022/01/26 10:37:55;;;;;;;;;;;4.30;99.90;;;;;;5093190;28;20283;-58
2022/01/26 10:40:23;;;;;;;;;;;4.30;99.90;;;;;;5060354;28;19924;-57
2022/01/26 10:42:49;;;;;;;;;;;;;;;;;;5054591;28;19922;-58
2022/01/26 10:45:19;;;;;;;;;;;;;;;;;;5075333;28;20020;-58
2022/01/26 10:47:46;;;;;;;;;;;;;;;;;;5074952;28;19931;-59
2022/01/26 10:50:48;;;;;;;;;;;4.30;99.90;;;;;;5075218;28;19916;-58
2022/01/26 10:53:20;;;;;;;;;;;4.40;99.90;;;;;;5075124;28;19923;-57
2022/01/26 10:55:46;;;;;;;;;;;;;;;;;;5092713;28;19924;-58
2022/01/26 10:58:13;;;;;;;;;;;4.60;99.90;;;;;;5093159;28;20276;-58
2022/01/26 11:00:39;;;;;;;;;;;;;;;;;;5058110;28;19916;-59
2022/01/26 11:03:05;;;;;;;;;;;;;;;;;;5093257;28;19927;-58
2022/01/26 11:05:30;;;;;;;;;;;4.60;99.90;;;;;;5074257;28;20284;-58
2022/01/26 11:07:57;;;;;;;;;;;4.40;99.90;;;;;;5092777;28;19916;-58
2022/01/26 11:10:30;;;;;;;;;;;4.50;99.90;;;;;;5074958;28;19920;-58
2022/01/26 11:12:55;;;;;;;;;;;4.70;99.90;;;;;;5093005;28;19923;-58
2022/01/26 11:15:22;;;;;;;;;;;4.70;99.90;;;;;;5092438;28;19939;-57
2022/01/26 11:17:48;;;;;;;;;;;4.70;99.90;;;;;;5074845;28;19969;-58
2022/01/26 11:20:13;;;;;;;;;;;4.80;99.90;;;;;;5075032;28;19920;-58
2022/01/26 11:22:47;;;;;;;;;;;4.80;99.90;;;;;;5073272;28;19916;-58
2022/01/26 11:25:13;;;;;;;;;;;4.70;99.90;;;;;;5058537;28;20238;-57
2022/01/26 11:27:38;;;;;;;;;;;;;;;;;;5093067;28;19923;-57
2022/01/26 11:30:20;;;;;;;;;;;4.80;99.90;;;;;;5075801;28;19916;-57
2022/01/26 11:32:45;;;;;;;;;;;;;;;;;;5093638;28;19969;-57
2022/01/26 11:35:12;;;;;;;;;;;4.90;99.90;;;;;;5094106;28;19915;-57
2022/01/26 11:37:42;;;;;;;;;;;4.50;99.90;;;;;;5093756;28;19919;-57
2022/01/26 11:45:30;;;;;;;;;;;4.80;99.90;;;;;;5075615;28;20250;-58
2022/01/26 11:48:08;;;;;;;;;;;4.70;99.90;;;;;;5094118;28;19916;-57
2022/01/26 11:50:35;;;;;;;;;;;4.80;99.90;;;;;;5075605;28;19981;-58
2022/01/26 11:53:11;;;;;;;;;;;4.80;99.90;;;;;;5058435;28;19970;-58
2022/01/26 11:55:52;;;;;;;;;;;4.70;99.90;;;;;;5076950;28;19916;-57
2022/01/26 11:58:19;;;;;;;;;;;;;;;;;;5093358;28;19959;-57
2022/01/26 12:00:51;;;;;;;;;;;;;;;;;;5093861;28;19920;-57
2022/01/26 12:03:21;;;;;;;;;;;4.50;99.90;;;;;;5075981;28;19969;-57
2022/01/26 12:05:48;;;;;;;;;;;4.60;99.90;;;;;;5093674;28;19962;-57
2022/01/26 12:08:14;;;;;;;;;;;4.70;99.90;;;;;;5093547;28;19923;-57
2022/01/26 12:10:43;;;;;;;;;;;4.80;99.90;;;;;;5075526;28;19916;-57
2022/01/26 12:13:10;;;;;;;;;;;4.80;99.90;;;;;;5059719;28;19916;-57
2022/01/26 12:15:46;;;;;;;;;;;4.60;99.90;;;;;;5079079;28;19916;-57
2022/01/26 12:18:23;;;;;;;;;;;4.50;99.90;;;;;;5078718;28;19923;-57
2022/01/26 12:34:47;;;;;;;;;;;4.70;99.90;;;;;;5092390;28;19916;-57
2022/01/26 12:37:32;;;;;;;;;;;4.60;99.90;;;;;;5069571;28;19923;-57
2022/01/26 12:45:17;;;;;;;;;;;;;;;;;;5059156;28;20346;-57
2022/01/26 12:47:43;;;;;;;;;;;4.60;99.90;;;;;;5113448;28;19916;-57
2022/01/26 12:50:09;;;;;;;;;;;;;;;;;;5116875;28;19915;-57
2022/01/26 12:52:35;;;;;;;;;;;;;;;;;;5117246;28;19922;-57
2022/01/26 12:55:00;;;;;;;;;;;4.60;99.90;;;;;;5076472;28;19923;-58
2022/01/26 12:57:26;;;;;;;;;;;4.60;99.90;;;;;;5075933;28;19916;-57
2022/01/26 13:00:02;;;;;;;;;;;4.40;99.90;;;;;;5076393;28;20010;-57
2022/01/26 13:02:28;;;;;;;;;;;4.90;99.90;;;;;;5092979;28;19969;-58
2022/01/26 13:05:01;;;;;;;;;;;4.70;99.90;;;;;;5078602;28;19916;-57
2022/01/26 13:07:26;;;;;;;;;;;4.60;99.90;;;;;;5096243;28;19961;-58
2022/01/26 13:09:52;;;;;;;;;;;;;;;;;;5077354;28;19916;-57
2022/01/26 13:12:27;;;;;;;;;;;4.80;99.90;;;;;;5095064;28;19969;-58
2022/01/26 13:15:02;;;;;;;;;;;4.40;99.90;;;;;;5078042;28;19938;-58
2022/01/26 13:27:55;;;;;;;;;;;5.10;99.90;;;;;;5084004;28;20348;-58
2022/01/26 13:36:12;;;;;;;;;;;5.10;99.90;;;;;;5096031;28;19916;-58
2022/01/26 13:47:32;;;;;;;;;;;5.20;99.90;;;;;;5016080;28;19938;-58
2022/01/26 13:55:17;;;;;;;;;;;5.50;99.90;;;;;;5035278;28;20354;-58
2022/01/26 13:57:51;;;;;;;;;;;5.50;99.90;;;;;;5053060;28;20015;-58
2022/01/26 14:00:19;;;;;;;;;;;;;;;;;;5036416;28;19916;-58
2022/01/26 14:02:44;;;;;;;;;;;5.60;99.90;;;;;;5021945;28;19963;-58
2022/01/26 14:05:10;;;;;;;;;;;5.50;99.90;;;;;;5033304;28;19920;-58
2022/01/26 14:07:36;;;;;;;;;;;5.40;99.90;;;;;;5020147;28;19969;-57
2022/01/26 14:10:03;;;;;;;;;;;5.30;99.90;;;;;;5036482;28;19983;-57
2022/01/26 14:12:33;;;;;;;;;;;5.70;99.90;;;;;;5023262;28;19971;-58
2022/01/26 14:14:59;;;;;;;;;;;5.60;99.90;;;;;;5043948;28;19924;-57
2022/01/26 14:17:57;;;;;;;;;;;;;;;;;;5094565;28;19927;-58
2022/01/26 14:20:43;;;;;;;;;;;5.40;99.90;;;;;;5098815;28;20017;-57
2022/01/26 14:25:40;;;;;;;;;;;5.80;99.90;;;;;;5077573;28;19919;-58
2022/01/26 14:28:08;;;;;;;;;;;;;;;;;;5060125;28;19920;-57
2022/01/26 14:36:07;;;;;;;;;;;5.30;99.90;;;;;;5077197;28;19916;-57
2022/01/26 14:52:48;;;;;;;;;;;5.60;99.90;;;;;;5093604;28;19916;-57
2022/01/26 15:30:13;;;;;;;;;;;5.90;99.90;;;;;;5094880;28;19965;-57
2022/01/26 15:40:53;;;;;;;;;;;;;;;;;;5076146;28;19915;-57
2022/01/26 15:48:47;;;;;;;;;;;5.70;99.90;;;;;;5097884;28;19998;-57
2022/01/26 15:51:45;;;;;;;;;;;5.60;99.90;;;;;;5098079;28;19916;-57
2022/01/26 16:21:02;;;;;;;;;;;5.80;99.90;;;;;;5060232;28;19923;-69
2022/01/26 16:26:43;;;;;;;;;;;;;;;;;;5055572;28;19917;-69
2022/01/26 17:34:37;;;;;;;;;;;6.20;99.90;;;;;;4971064;28;19918;-71
2022/01/26 18:26:12;;;;;;;;;;;;;;;;;;5033836;28;19960;-68
2022/01/26 18:39:48;;;;;;;;;;;6.20;99.90;;;;;;5049272;28;19940;-68
2022/01/26 18:50:32;;;;;;;;;;;6.20;99.90;;;;;;4991396;28;19918;-67
2022/01/26 18:52:57;;;;;;;;;;;6.30;99.90;;;;;;4967911;28;19964;-67
2022/01/26 18:55:23;;;;;;;;;;;;;;;;;;4957805;28;20311;-68
2022/01/26 18:57:49;;;;;;;;;;;;;;;;;;4975066;28;20405;-67
2022/01/26 19:00:15;;;;;;;;;;;6.10;99.90;;;;;;4988566;28;19944;-67
2022/01/26 19:02:40;;;;;;;;;;;6.10;99.90;;;;;;4975781;28;19926;-68
2022/01/26 19:05:07;;;;;;;;;;;6.20;99.90;;;;;;4975994;28;19922;-68
2022/01/26 19:07:33;;;;;;;;;;;6.20;99.90;;;;;;4972583;28;19965;-67
2022/01/26 19:09:59;;;;;;;;;;;6.20;99.90;;;;;;4969614;28;19918;-68
2022/01/26 19:12:27;;;;;;;;;;;6.40;99.90;;;;;;4973720;28;19918;-67
2022/01/26 19:14:57;;;;;;;;;;;6.20;99.90;;;;;;4964365;28;19940;-66
2022/01/26 19:17:29;;;;;;;;;;;6.20;99.90;;;;;;4949473;28;19965;-66
2022/01/26 19:22:45;;;;;;;;;;;6.20;99.90;;;;;;4983153;28;20004;-67
2022/01/26 19:31:04;;;;;;;;;;;6.40;99.90;;;;;;5038712;28;20008;-67
2022/01/26 19:43:57;;;;;;;;;;;6.00;99.90;;;;;;5038551;28;20396;-67
2022/01/26 19:52:11;;;;;;;;;;;6.20;99.90;;;;;;5052547;28;19924;-66
2022/01/26 19:54:37;;;;;;;;;;;;;;;;;;5040288;28;19975;-68
2022/01/26 19:57:03;;;;;;;;;;;6.10;99.90;;;;;;5032122;28;19917;-67
2022/01/26 19:59:29;;;;;;;;;;;5.70;99.90;;;;;;5040652;28;19925;-67
2022/01/26 20:01:54;;;;;;;;;;;6.10;99.90;;;;;;5022752;28;19917;-67
2022/01/26 20:04:20;;;;;;;;;;;5.80;99.90;;;;;;5018943;28;20349;-67
2022/01/26 20:06:47;;;;;;;;;;;;;;;;;;5059818;28;19920;-67
2022/01/26 20:09:24;;;;;;;;;;;5.90;99.90;;;;;;5055401;28;19970;-67
2022/01/26 20:11:56;;;;;;;;;;;6.00;99.90;;;;;;5034320;28;19917;-67
2022/01/26 20:14:26;;;;;;;;;;;5.80;99.90;;;;;;5033645;28;19925;-67
2022/01/26 20:16:51;;;;;;;;;;;5.70;99.90;;;;;;5049211;28;19959;-67
2022/01/26 20:19:18;;;;;;;;;;;5.90;99.90;;;;;;5069062;28;19959;-67
2022/01/26 20:21:45;;;;;;;;;;;5.80;99.90;;;;;;5040738;28;19916;-67
2022/01/26 20:24:13;;;;;;;;;;;5.60;99.90;;;;;;5035227;28;19916;-67
2022/01/26 20:26:39;;;;;;;;;;;;;;;;;;5051053;28;20013;-66
2022/01/26 20:29:05;;;;;;;;;;;5.50;99.90;;;;;;5036484;28;19970;-69
2022/01/26 20:31:31;;;;;;;;;;;;;;;;;;5052603;28;20007;-67
2022/01/26 20:33:56;;;;;;;;;;;5.80;99.90;;;;;;5051421;28;19920;-66
2022/01/26 20:36:28;;;;;;;;;;;5.80;99.90;;;;;;5055566;28;19920;-67
2022/01/26 20:38:54;;;;;;;;;;;;;;;;;;5039046;28;19917;-67
2022/01/26 20:41:19;;;;;;;;;;;6.00;99.90;;;;;;5055320;28;19924;-66
2022/01/26 20:43:45;;;;;;;;;;;5.50;99.90;;;;;;5054958;28;19916;-66
2022/01/26 20:46:11;;;;;;;;;;;5.70;99.90;;;;;;5053827;28;19935;-67
2022/01/26 20:48:36;;;;;;;;;;;;;;;;;;5039406;28;19920;-67
2022/01/26 20:51:02;;;;;;;;;;;5.70;99.90;;;;;;5055786;28;20335;-67
2022/01/26 20:53:28;;;;;;;;;;;5.80;99.90;;;;;;5052130;28;19939;-67
2022/01/26 20:55:54;;;;;;;;;;;5.50;99.90;;;;;;5055379;28;20015;-68
2022/01/26 20:58:19;;;;;;;;;;;5.70;99.90;;;;;;5056535;28;19916;-67
2022/01/26 21:00:45;;;;;;;;;;;5.70;99.90;;;;;;5055258;28;19986;-68
2022/01/26 21:03:13;;;;;;;;;;;5.70;99.90;;;;;;5054791;28;19925;-68
2022/01/26 21:05:39;;;;;;;;;;;5.90;99.90;;;;;;5038367;28;19925;-67
2022/01/26 21:08:05;;;;;;;;;;;5.70;99.90;;;;;;5055320;28;19924;-67
2022/01/26 21:10:30;;;;;;;;;;;5.60;99.90;;;;;;5056034;28;19916;-67
2022/01/26 21:12:56;;;;;;;;;;;5.90;99.90;;;;;;5053601;28;20281;-68
2022/01/26 21:15:23;;;;;;;;;;;5.70;99.90;;;;;;5055276;28;20258;-66
2022/01/26 21:17:49;;;;;;;;;;;5.90;99.90;;;;;;5053080;28;20333;-67
2022/01/26 21:20:16;;;;;;;;;;;5.50;99.90;;;;;;5056036;28;20011;-67
2022/01/26 21:22:45;;;;;;;;;;;5.50;99.90;;;;;;5054960;28;19916;-67
2022/01/26 21:25:11;;;;;;;;;;;5.50;99.90;;;;;;5055416;28;19963;-67
2022/01/26 21:27:37;;;;;;;;;;;;;;;;;;5055400;28;19924;-67
2022/01/26 21:30:03;;;;;;;;;;;5.70;99.90;;;;;;5054894;28;19917;-67
2022/01/26 21:32:29;;;;;;;;;;;5.70;99.90;;;;;;5054421;28;19917;-67
2022/01/26 21:34:55;;;;;;;;;;;5.80;99.90;;;;;;5040947;28;19963;-66
2022/01/26 21:37:20;;;;;;;;;;;5.70;99.90;;;;;;5035579;28;19917;-66
2022/01/26 21:39:46;;;;;;;;;;;5.90;99.90;;;;;;5034899;28;19928;-67
2022/01/26 21:42:12;;;;;;;;;;;5.50;99.90;;;;;;5053498;28;19916;-67
2022/01/26 21:44:38;;;;;;;;;;;5.60;99.90;;;;;;5045684;28;19983;-67
2022/01/26 21:47:04;;;;;;;;;;;6.00;99.90;;;;;;5038928;28;19916;-68
2022/01/26 21:49:29;;;;;;;;;;;5.90;99.90;;;;;;5054477;28;19966;-66
2022/01/26 21:51:55;;;;;;;;;;;5.90;99.90;;;;;;5061250;28;20006;-67